createdAt,value
2023-01-07T00:01:39.986Z,14.03
2023-01-07T00:04:13.331Z,32.20
2023-01-07T00:06:43.236Z,33.83
2023-01-07T00:09:16.860Z,50.17
2023-01-07T00:11:45.456Z,56.23
2023-01-07T00:14:14.551Z,49.30
2023-01-07T00:16:42.697Z,52.47
2023-01-07T00:19:14.948Z,38.00
2023-01-07T00:21:43.105Z,32.53
2023-01-07T00:24:12.245Z,25.77
2023-01-07T00:26:40.688Z,32.43
2023-01-07T00:29:09.548Z,26.10
2023-01-07T00:31:40.836Z,24.03
2023-01-07T00:34:09.517Z,20.80
2023-01-07T00:36:42.935Z,23.33
2023-01-07T00:39:18.071Z,16.77
2023-01-07T00:42:04.663Z,21.70
2023-01-07T00:44:32.695Z,32.50
2023-01-07T00:47:00.923Z,20.37
2023-01-07T00:49:28.500Z,18.27
2023-01-07T00:51:56.029Z,17.53
2023-01-07T00:54:24.644Z,20.17
2023-01-07T00:56:52.189Z,15.00
2023-01-07T00:59:19.827Z,9.20
2023-01-07T01:01:47.785Z,12.53
2023-01-07T01:04:15.764Z,11.23
2023-01-07T01:06:43.278Z,16.23
2023-01-07T01:09:10.762Z,16.33
2023-01-07T01:11:38.266Z,18.20
2023-01-07T01:14:05.756Z,15.97
2023-01-07T01:16:33.207Z,18.37
2023-01-07T01:19:00.712Z,15.43
2023-01-07T01:21:28.590Z,29.53
2023-01-07T01:23:56.113Z,12.03
2023-01-07T01:26:23.592Z,8.10
2023-01-07T01:28:51.017Z,3.90
2023-01-07T01:31:23.039Z,7.00
2023-01-07T01:33:56.658Z,3.47
2023-01-07T01:36:24.982Z,4.07
2023-01-07T01:38:55.347Z,3.00
2023-01-07T01:41:23.011Z,3.50
2023-01-07T01:43:53.113Z,4.93
2023-01-07T01:46:35.716Z,4.97
2023-01-07T01:49:24.290Z,5.93
2023-01-07T01:52:14.006Z,4.73
2023-01-07T01:54:45.945Z,13.40
2023-01-07T01:57:13.901Z,15.63
2023-01-07T01:59:45.707Z,16.43
2023-01-07T02:02:29.908Z,19.33
2023-01-07T02:04:58.322Z,17.83
2023-01-07T02:07:25.910Z,16.53
2023-01-07T02:10:10.399Z,13.40
2023-01-07T02:13:17.674Z,10.67
2023-01-07T02:16:03.861Z,10.70
2023-01-07T02:18:51.890Z,6.77
2023-01-07T02:21:56.873Z,5.00
2023-01-07T02:24:30.216Z,4.77
2023-01-07T02:27:51.210Z,4.00
2023-01-07T02:30:48.767Z,4.63
2023-01-07T02:33:44.556Z,5.40
2023-01-07T02:36:30.574Z,4.97
2023-01-07T02:39:26.170Z,3.53
2023-01-07T02:42:04.472Z,3.73
2023-01-07T02:44:59.952Z,3.10
2023-01-07T02:47:39.840Z,6.87
2023-01-07T02:50:09.381Z,4.83
2023-01-07T02:52:37.897Z,7.53
2023-01-07T02:55:23.000Z,11.20
2023-01-07T02:58:22.669Z,8.13
2023-01-07T03:01:28.613Z,11.13
2023-01-07T03:04:40.601Z,16.83
2023-01-07T03:07:16.401Z,17.07
2023-01-07T03:10:11.619Z,13.67
2023-01-07T03:13:14.380Z,12.23
2023-01-07T03:24:09.337Z,13.77
2023-01-07T03:26:46.607Z,12.20
2023-01-07T03:29:17.928Z,9.90
2023-01-07T03:32:19.910Z,10.77
2023-01-07T03:34:48.351Z,13.40
2023-01-07T03:37:20.682Z,10.97
2023-01-07T03:39:49.034Z,5.37
2023-01-07T03:42:42.387Z,4.20
2023-01-07T03:45:20.336Z,5.00
2023-01-07T03:47:52.417Z,3.40
2023-01-07T03:50:21.466Z,3.73
2023-01-07T03:52:50.954Z,3.90
2023-01-07T03:55:20.320Z,5.40
2023-01-07T03:57:49.684Z,2.37
2023-01-07T04:00:18.094Z,5.83
2023-01-07T04:02:53.611Z,3.20
2023-01-07T04:05:25.469Z,3.37
2023-01-07T04:07:53.407Z,2.80
2023-01-07T04:10:21.795Z,3.40
2023-01-07T04:12:49.313Z,3.87
2023-01-07T04:15:16.958Z,3.53
2023-01-07T04:17:44.491Z,5.00
2023-01-07T04:20:12.365Z,166.47
2023-01-07T04:22:39.890Z,451.97
2023-01-07T04:25:08.883Z,170.13
2023-01-07T04:27:37.937Z,69.67
2023-01-07T04:30:06.567Z,34.10
2023-01-07T04:32:34.973Z,13.63
2023-01-07T04:35:02.820Z,10.30
2023-01-07T04:37:31.487Z,12.90
2023-01-07T04:39:59.455Z,25.97
2023-01-07T04:42:27.305Z,30.63
2023-01-07T04:44:55.196Z,40.80
2023-01-07T04:47:23.356Z,43.23
2023-01-07T04:49:51.512Z,49.97
2023-01-07T04:52:19.010Z,58.27
2023-01-07T04:54:46.957Z,84.27
2023-01-07T04:57:14.673Z,56.77
2023-01-07T04:59:44.520Z,74.67
2023-01-07T05:02:12.148Z,55.60
2023-01-07T05:04:40.172Z,59.50
2023-01-07T05:07:09.621Z,58.17
2023-01-07T05:09:37.203Z,60.37
2023-01-07T05:12:05.124Z,47.23
2023-01-07T05:14:32.954Z,47.00
2023-01-07T05:17:00.620Z,42.50
2023-01-07T05:19:30.015Z,34.00
2023-01-07T05:21:58.560Z,38.07
2023-01-07T05:24:27.174Z,36.47
2023-01-07T05:26:54.840Z,37.27
2023-01-07T05:29:23.072Z,27.20
2023-01-07T05:31:50.585Z,45.97
2023-01-07T05:34:18.766Z,48.13
2023-01-07T05:36:46.753Z,44.30
2023-01-07T05:39:15.006Z,46.70
2023-01-07T05:41:43.089Z,44.83
2023-01-07T05:44:11.262Z,44.40
2023-01-07T05:46:38.711Z,37.07
2023-01-07T05:49:09.055Z,60.47
2023-01-07T05:51:36.866Z,42.90
2023-01-07T05:54:04.910Z,58.17
2023-01-07T05:56:32.423Z,34.27
2023-01-07T05:58:59.877Z,48.53
2023-01-07T06:01:28.836Z,46.07
2023-01-07T06:03:57.512Z,31.50
2023-01-07T06:06:25.044Z,35.43
2023-01-07T06:08:52.526Z,41.33
2023-01-07T06:11:20.110Z,41.33
2023-01-07T06:13:49.187Z,40.43
2023-01-07T06:16:16.879Z,108.50
2023-01-07T06:18:44.384Z,86.27
2023-01-07T06:21:12.011Z,68.00
2023-01-07T06:23:39.582Z,95.60
2023-01-07T06:26:07.053Z,59.10
2023-01-07T06:28:35.465Z,56.57
2023-01-07T06:31:03.078Z,56.10
2023-01-07T06:33:32.649Z,48.70
2023-01-07T06:36:00.857Z,51.17
2023-01-07T06:38:28.337Z,49.60
2023-01-07T06:40:55.859Z,70.57
2023-01-07T06:43:25.561Z,63.03
2023-01-07T06:45:53.242Z,40.70
2023-01-07T06:48:20.737Z,26.23
2023-01-07T06:50:48.213Z,32.37
2023-01-07T06:53:16.222Z,50.40
2023-01-07T06:55:51.949Z,44.83
2023-01-07T06:58:19.800Z,47.17
2023-01-07T07:00:47.439Z,45.03
2023-01-07T07:03:14.954Z,45.50
2023-01-07T07:05:44.338Z,55.97
2023-01-07T07:08:11.858Z,38.37
2023-01-07T07:10:39.566Z,40.77
2023-01-07T07:13:07.100Z,33.83
2023-01-07T07:15:34.605Z,34.27
2023-01-07T07:18:03.437Z,24.67
2023-01-07T07:20:32.484Z,14.30
2023-01-07T07:23:01.900Z,24.13
2023-01-07T07:25:29.757Z,45.30
2023-01-07T07:27:57.240Z,46.37
2023-01-07T07:30:47.286Z,58.30
2023-01-07T07:33:14.876Z,74.77
2023-01-07T07:35:43.741Z,78.70
2023-01-07T07:38:11.412Z,64.67
2023-01-07T07:40:38.948Z,52.10
2023-01-07T07:43:11.628Z,42.47
2023-01-07T07:45:41.562Z,32.47
2023-01-07T07:48:10.799Z,29.20
2023-01-07T07:50:38.386Z,23.37
2023-01-07T07:53:09.998Z,37.70
2023-01-07T07:55:39.601Z,29.33
2023-01-07T07:58:07.262Z,25.13
2023-01-07T08:00:34.790Z,26.57
2023-01-07T08:03:02.554Z,19.07
2023-01-07T08:05:31.247Z,26.93
2023-01-07T08:07:58.849Z,34.10
2023-01-07T08:10:30.053Z,30.60
2023-01-07T08:12:57.725Z,28.23
2023-01-07T08:15:25.317Z,77.07
2023-01-07T08:18:07.179Z,28.67
2023-01-07T08:20:37.759Z,24.13
2023-01-07T08:23:08.034Z,19.47
2023-01-07T08:25:37.237Z,46.20
2023-01-07T08:28:05.306Z,17.70
2023-01-07T08:30:33.143Z,14.53
2023-01-07T08:33:03.339Z,28.20
2023-01-07T08:35:31.100Z,19.93
2023-01-07T08:38:09.136Z,18.13
2023-01-07T08:40:47.017Z,18.20
2023-01-07T08:43:15.306Z,16.20
2023-01-07T08:45:49.787Z,16.87
2023-01-07T08:48:17.397Z,19.30
2023-01-07T08:50:48.645Z,28.43
2023-01-07T08:53:16.231Z,18.40
2023-01-07T08:55:43.718Z,18.70
2023-01-07T08:58:11.344Z,9.57
2023-01-07T09:00:40.408Z,20.27
2023-01-07T09:03:07.954Z,9.90
2023-01-07T09:05:35.765Z,20.53
2023-01-07T09:08:03.866Z,9.60
2023-01-07T09:10:31.682Z,13.80
2023-01-07T09:12:59.226Z,7.50
2023-01-07T09:15:26.784Z,8.13
2023-01-07T09:17:54.348Z,12.20
2023-01-07T09:20:22.214Z,6.60
2023-01-07T09:22:49.750Z,8.40
2023-01-07T09:25:17.396Z,7.47
2023-01-07T09:27:45.887Z,13.53
2023-01-07T09:30:13.551Z,10.17
2023-01-07T09:32:43.088Z,8.07
2023-01-07T09:35:11.670Z,7.13
2023-01-07T09:37:39.358Z,6.00
2023-01-07T09:40:09.090Z,6.93
2023-01-07T09:42:44.128Z,7.97
2023-01-07T09:45:16.838Z,5.13
2023-01-07T09:47:48.466Z,5.40
2023-01-07T09:50:45.386Z,5.23
2023-01-07T09:53:37.962Z,6.60
2023-01-07T09:56:26.950Z,3.47
2023-01-07T09:59:15.424Z,3.97
2023-01-07T10:56:37.460Z,9.23
2023-01-07T10:59:05.942Z,4.00
2023-01-07T11:01:40.409Z,3.70
2023-01-07T11:04:16.669Z,6.17
2023-01-07T11:06:56.439Z,6.27
2023-01-07T11:09:35.074Z,7.50
2023-01-07T11:12:29.242Z,3.47
2023-01-07T11:14:59.893Z,9.60
2023-01-07T11:17:53.509Z,4.07
2023-01-07T11:20:46.857Z,8.63
2023-01-07T11:23:32.240Z,3.37
2023-01-07T11:26:23.732Z,5.40
2023-01-07T11:28:55.197Z,3.07
2023-01-07T11:31:51.992Z,7.03
2023-01-07T11:35:01.792Z,2.97
2023-01-07T11:37:41.131Z,4.87
2023-01-07T11:40:14.824Z,4.60
2023-01-07T11:42:56.259Z,5.10
2023-01-07T11:46:19.588Z,3.63
2023-01-07T11:49:02.769Z,7.00
2023-01-07T11:52:00.207Z,9.67
2023-01-07T11:54:31.322Z,6.53
2023-01-07T11:57:25.501Z,4.03
2023-01-07T12:00:19.529Z,2.43
2023-01-07T12:03:01.961Z,5.00
2023-01-07T12:05:31.796Z,2.80
2023-01-07T12:07:59.826Z,3.80
2023-01-07T12:10:39.935Z,3.07
2023-01-07T12:13:21.799Z,3.43
2023-01-07T12:16:02.034Z,5.63
2023-01-07T12:18:47.986Z,7.50
2023-01-07T12:21:36.219Z,5.87
2023-01-07T12:24:49.856Z,3.80
2023-01-07T12:27:50.999Z,5.73
2023-01-07T12:30:55.823Z,5.73
2023-01-07T12:34:10.130Z,2.37
2023-01-07T12:37:01.229Z,3.27
2023-01-07T12:39:47.306Z,3.67
2023-01-07T12:42:32.543Z,4.03
2023-01-07T12:45:07.493Z,3.70
2023-01-07T12:47:50.585Z,2.83
2023-01-07T12:50:45.468Z,4.27
2023-01-07T12:53:41.272Z,2.50
2023-01-07T12:56:52.933Z,3.13
2023-01-07T12:59:45.579Z,2.50
2023-01-07T13:02:30.883Z,5.03
2023-01-07T13:05:39.520Z,4.40
2023-01-07T13:08:24.136Z,6.72
2023-01-07T13:11:18.028Z,5.97
2023-01-07T13:13:55.382Z,5.05
2023-01-07T13:16:24.616Z,2.97
2023-01-07T13:18:52.286Z,9.15
2023-01-07T13:21:21.863Z,4.82
2023-01-07T13:24:13.075Z,3.08
2023-01-07T13:26:56.704Z,8.88
2023-01-07T13:30:05.498Z,2.58
2023-01-07T13:33:16.055Z,2.53
2023-01-07T13:36:04.951Z,1.48
2023-01-07T13:39:00.954Z,2.80
2023-01-07T13:42:08.640Z,2.55
2023-01-07T13:44:36.117Z,4.05
2023-01-07T13:47:05.795Z,5.22
2023-01-07T13:49:35.701Z,5.47
2023-01-07T13:52:26.083Z,7.63
2023-01-07T13:54:58.163Z,6.90
2023-01-07T13:57:31.871Z,5.20
2023-01-07T14:00:05.307Z,4.80
2023-01-07T14:03:17.450Z,11.35
2023-01-07T14:05:45.453Z,6.53
2023-01-07T14:08:12.938Z,11.23
2023-01-07T14:10:40.672Z,7.40
2023-01-07T14:13:50.328Z,23.52
2023-01-07T14:16:44.706Z,18.23
2023-01-07T14:19:21.946Z,72.30
2023-01-07T14:22:22.158Z,43.65
2023-01-07T14:25:01.816Z,53.10
2023-01-07T14:27:41.041Z,52.97
2023-01-07T14:30:31.253Z,30.13
2023-01-07T14:33:06.984Z,21.10
2023-01-07T14:35:40.746Z,31.60
2023-01-07T14:38:32.537Z,22.80
2023-01-07T14:41:09.370Z,14.52
2023-01-07T14:43:45.910Z,22.42
2023-01-07T14:46:49.528Z,10.00
2023-01-07T14:49:54.256Z,8.63
2023-01-07T14:52:58.836Z,14.10
2023-01-07T14:55:38.543Z,45.67
2023-01-07T14:58:34.542Z,21.53
2023-01-07T15:01:17.126Z,123.93
2023-01-07T15:04:02.258Z,102.23
2023-01-07T15:06:41.944Z,71.10
2023-01-07T15:09:33.218Z,87.93
2023-01-07T15:12:32.674Z,117.67
2023-01-07T15:15:36.082Z,132.70
2023-01-07T15:18:08.840Z,113.23
2023-01-07T15:21:24.060Z,100.90
2023-01-07T15:24:28.786Z,97.17
2023-01-07T15:27:06.477Z,117.57
2023-01-07T15:30:24.059Z,145.00
2023-01-07T15:33:30.829Z,120.03
2023-01-07T15:35:58.817Z,134.13
2023-01-07T15:38:46.094Z,118.87
2023-01-07T15:41:26.800Z,101.23
2023-01-07T15:43:57.035Z,101.33
2023-01-07T15:46:26.771Z,56.00
2023-01-07T15:49:29.566Z,65.80
2023-01-07T15:52:00.562Z,104.20
2023-01-07T15:54:28.169Z,159.37
2023-01-07T15:57:09.911Z,214.60
2023-01-07T15:59:50.221Z,187.23
2023-01-07T16:02:32.924Z,221.47
2023-01-07T16:05:27.782Z,139.13
2023-01-07T16:08:00.256Z,166.23
2023-01-07T16:10:35.146Z,87.73
2023-01-07T16:13:18.530Z,22.27
2023-01-07T16:15:46.113Z,26.57
2023-01-07T16:18:14.776Z,38.70
2023-01-07T16:20:56.957Z,38.23
2023-01-07T16:23:34.438Z,47.90
2023-01-07T16:26:20.216Z,49.47
2023-01-07T16:29:06.619Z,54.00
2023-01-07T16:31:36.392Z,123.47
2023-01-07T16:34:25.795Z,65.97
2023-01-07T16:36:58.296Z,94.37
2023-01-07T16:39:34.308Z,64.27
2023-01-07T16:42:20.959Z,51.33
2023-01-07T16:44:49.661Z,56.73
2023-01-07T16:47:24.066Z,72.17
2023-01-07T16:50:13.635Z,72.90
2023-01-07T16:52:57.380Z,107.13
2023-01-07T16:56:14.723Z,166.00
2023-01-07T16:58:55.424Z,221.40
2023-01-07T17:01:35.482Z,176.53
2023-01-07T17:04:10.232Z,123.77
2023-01-07T17:06:43.634Z,144.70
2023-01-07T17:09:35.611Z,172.90
2023-01-07T17:12:05.094Z,138.37
2023-01-07T17:14:38.188Z,97.00
2023-01-07T17:17:19.540Z,75.43
2023-01-07T17:19:52.995Z,81.60
2023-01-07T17:22:50.119Z,94.43
2023-01-07T17:25:28.846Z,124.37
2023-01-07T17:28:07.503Z,126.03
2023-01-07T17:30:36.896Z,140.70
2023-01-07T17:33:05.870Z,144.67
2023-01-07T17:35:33.871Z,134.27
2023-01-07T17:38:01.865Z,154.53
2023-01-07T17:40:30.260Z,141.20
2023-01-07T17:43:16.434Z,94.20
2023-01-07T17:45:45.234Z,63.17
2023-01-07T17:48:14.653Z,67.40
2023-01-07T17:50:43.738Z,67.77
2023-01-07T17:53:25.753Z,93.40
2023-01-07T17:55:54.428Z,100.07
2023-01-07T17:58:30.469Z,100.30
2023-01-07T18:01:00.922Z,83.00
2023-01-07T18:03:29.268Z,70.80
2023-01-07T18:05:57.757Z,57.80
2023-01-07T18:08:26.803Z,55.93
2023-01-07T18:11:16.456Z,82.97
2023-01-07T18:13:43.979Z,38.60
2023-01-07T18:16:14.350Z,40.43
2023-01-07T18:18:42.131Z,34.37
2023-01-07T18:21:13.257Z,31.47
2023-01-07T18:23:40.888Z,32.47
2023-01-07T18:26:09.049Z,31.27
2023-01-07T18:28:36.520Z,34.20
2023-01-07T18:31:04.728Z,34.07
2023-01-07T18:33:33.711Z,34.77
2023-01-07T18:36:01.940Z,38.60
2023-01-07T18:38:30.412Z,39.83
2023-01-07T18:41:00.236Z,41.57
2023-01-07T18:43:30.334Z,43.37
2023-01-07T18:46:00.869Z,53.13
2023-01-07T18:48:31.220Z,50.10
2023-01-07T18:51:00.132Z,50.30
2023-01-07T18:53:29.919Z,59.80
2023-01-07T18:56:02.534Z,66.93
2023-01-07T18:58:30.252Z,94.17
2023-01-07T19:01:06.667Z,82.40
2023-01-07T19:03:37.158Z,92.20
2023-01-07T19:06:15.145Z,101.67
2023-01-07T19:08:42.702Z,110.13
2023-01-07T19:11:16.936Z,107.07
2023-01-07T19:13:46.290Z,109.57
2023-01-07T19:16:14.859Z,99.90
2023-01-07T19:18:44.182Z,74.90
2023-01-07T19:21:17.196Z,64.17
2023-01-07T19:23:48.961Z,62.40
2023-01-07T19:26:16.546Z,47.53
2023-01-07T19:28:44.186Z,48.57
2023-01-07T19:31:11.722Z,40.10
2023-01-07T19:33:41.473Z,42.97
2023-01-07T19:36:13.290Z,43.07
2023-01-07T19:38:47.302Z,32.27
2023-01-07T19:41:21.228Z,82.17
2023-01-07T19:43:52.576Z,72.37
2023-01-07T19:46:20.780Z,97.63
2023-01-07T19:48:48.783Z,99.73
2023-01-07T19:51:20.739Z,100.17
2023-01-07T19:53:48.269Z,94.93
2023-01-07T19:56:15.835Z,87.33
2023-01-07T19:58:43.522Z,76.77
2023-01-07T20:01:17.978Z,63.03
2023-01-07T20:03:47.402Z,62.97
2023-01-07T20:06:18.516Z,62.33
2023-01-07T20:08:50.921Z,218.67
2023-01-07T20:11:19.509Z,181.63
2023-01-07T20:13:48.498Z,108.17
2023-01-07T20:16:22.703Z,113.30
2023-01-07T20:18:53.429Z,85.67
2023-01-07T20:21:25.921Z,97.33
2023-01-07T20:23:57.069Z,82.80
2023-01-07T20:26:30.548Z,92.47
2023-01-07T20:28:59.976Z,88.40
2023-01-07T20:31:32.414Z,68.47
2023-01-07T20:34:02.363Z,68.40
2023-01-07T20:36:33.429Z,57.73
2023-01-07T20:39:06.314Z,59.57
2023-01-07T20:41:39.721Z,49.97
2023-01-07T20:44:20.033Z,50.33
2023-01-07T20:46:48.924Z,41.37
2023-01-07T20:49:19.841Z,37.80
2023-01-07T20:51:50.835Z,40.30
2023-01-07T20:54:21.787Z,41.97
2023-01-07T20:56:50.808Z,59.10
2023-01-07T20:59:21.378Z,44.47
2023-01-07T21:01:50.227Z,55.77
2023-01-07T21:04:17.857Z,59.27
2023-01-07T21:06:48.069Z,62.60
2023-01-07T21:09:20.150Z,60.23
2023-01-07T21:11:47.718Z,101.73
2023-01-07T21:14:16.376Z,108.67
2023-01-07T21:16:48.492Z,108.50
2023-01-07T21:19:16.031Z,142.83
2023-01-07T21:21:45.755Z,168.67
2023-01-07T21:24:17.589Z,157.27
2023-01-07T21:26:45.224Z,176.00
2023-01-07T21:29:14.108Z,186.77
2023-01-07T21:31:42.404Z,170.47
2023-01-07T21:34:10.481Z,170.43
2023-01-07T21:36:39.045Z,157.50
2023-01-07T21:39:07.672Z,143.80
2023-01-07T21:41:35.168Z,111.17
2023-01-07T21:44:13.355Z,105.17
2023-01-07T21:46:41.025Z,75.10
2023-01-07T21:49:08.717Z,68.77
2023-01-07T21:51:36.304Z,35.90
2023-01-07T21:54:03.940Z,29.67
2023-01-07T21:56:32.982Z,27.53
2023-01-07T21:59:00.883Z,26.57
2023-01-07T22:01:31.462Z,22.03
2023-01-07T22:04:00.657Z,20.57
2023-01-07T22:06:32.163Z,18.23
2023-01-07T22:09:05.908Z,16.37
2023-01-07T22:11:35.726Z,19.53
2023-01-07T22:14:03.530Z,25.20
2023-01-07T22:16:34.295Z,38.97
2023-01-07T22:19:01.956Z,74.67
2023-01-07T22:21:30.333Z,63.20
2023-01-07T22:23:57.870Z,45.73
2023-01-07T22:26:25.307Z,40.20
2023-01-07T22:28:56.436Z,35.47
2023-01-07T22:31:31.278Z,32.23
2023-01-07T22:33:59.082Z,27.73
2023-01-07T22:36:39.768Z,23.80
2023-01-07T22:39:23.259Z,28.80
2023-01-07T22:41:56.385Z,38.60
2023-01-07T22:44:37.903Z,38.70
2023-01-07T22:47:09.187Z,36.63
2023-01-07T22:49:37.290Z,43.40
2023-01-07T22:52:05.741Z,40.63
2023-01-07T22:54:33.876Z,40.93
2023-01-07T22:57:02.123Z,53.23
2023-01-07T22:59:30.115Z,60.73
2023-01-07T23:01:57.959Z,61.83
2023-01-07T23:04:25.515Z,53.77
2023-01-07T23:06:53.075Z,66.40
2023-01-07T23:09:21.055Z,64.47
2023-01-07T23:11:48.516Z,70.73
2023-01-07T23:14:21.903Z,96.20
2023-01-07T23:16:51.167Z,79.73
2023-01-07T23:19:20.283Z,78.60
2023-01-07T23:21:51.594Z,50.03
2023-01-07T23:24:20.037Z,65.53
2023-01-07T23:26:52.353Z,54.50
2023-01-07T23:29:20.976Z,42.33
2023-01-07T23:31:48.758Z,25.33
2023-01-07T23:34:17.152Z,27.07
2023-01-07T23:36:44.932Z,22.03
2023-01-07T23:39:13.019Z,13.60
2023-01-07T23:41:40.499Z,8.97
2023-01-07T23:44:08.225Z,12.10
2023-01-07T23:46:35.750Z,12.00
2023-01-07T23:49:03.337Z,12.57
2023-01-07T23:51:30.848Z,15.73
2023-01-07T23:53:58.931Z,8.00
2023-01-07T23:56:26.396Z,8.77
2023-01-07T23:58:56.315Z,8.50
